Terminal Aerodrome Forecast
Issued by NWS

Home | Current Version | Previous Version | Text Only | Print | Product List | Glossary On
Versions: 1 2 3 4 5 6 7 8 9 10 11 12 13 14 15 16 17 18 19 20 21 22 23 24 25 26 27 28 29 30 31 32 33 34 35 36 37 38 39 40 41 42 43 44 45 46 47 48 49 50
998
FTUS43 KLOT 181120
TAFGYY
TAF
KGYY 181120Z 1812/1912 33009KT P6SM OVC020
     FM181400 01008KT P6SM BKN020 OVC100
     FM182000 04010KT P6SM OVC020
     FM182300 06012KT 2SM -SN OVC012
     FM190300 05012G18KT 1 1/2SM -SN OVC010
      TEMPO 1903/1906 1SM -SN BR OVC008=

USA.gov is the U.S. government's official web portal to all federal, state and local government web resources and services.